createdAt,value
2023-03-22T00:00:39.988Z,21.90
2023-03-22T00:01:39.675Z,22.10
2023-03-22T00:02:39.694Z,22.10
2023-03-22T00:03:39.659Z,22.20
2023-03-22T00:04:39.661Z,22.70
2023-03-22T00:05:39.602Z,23.60
2023-03-22T00:06:39.622Z,23.40
2023-03-22T00:07:39.592Z,23.20
2023-03-22T00:08:39.570Z,22.60
2023-03-22T00:09:39.612Z,22.70
2023-03-22T00:10:39.918Z,23.40
2023-03-22T00:11:39.547Z,23.50
2023-03-22T00:12:39.538Z,23.50
2023-03-22T00:13:39.529Z,23.20
2023-03-22T00:14:39.529Z,24.10
2023-03-22T00:15:39.589Z,23.90
2023-03-22T00:16:39.522Z,24.10
2023-03-22T00:17:39.483Z,24.20
2023-03-22T00:18:39.475Z,23.90
2023-03-22T00:19:39.488Z,24.70
2023-03-22T00:20:39.741Z,24.40
2023-03-22T00:21:39.450Z,24.80
2023-03-22T00:22:39.448Z,24.80
2023-03-22T00:23:39.431Z,25.20
2023-03-22T00:24:39.445Z,25.20
2023-03-22T00:25:39.407Z,24.10
2023-03-22T00:26:39.418Z,25.40
2023-03-22T00:27:39.407Z,25.50
2023-03-22T00:28:39.391Z,25.40
2023-03-22T00:29:39.421Z,25.50
2023-03-22T00:30:39.693Z,25.00
2023-03-22T00:31:39.419Z,25.40
2023-03-22T00:32:39.377Z,26.60
2023-03-22T00:33:39.352Z,25.50
2023-03-22T00:34:39.351Z,26.10
2023-03-22T00:35:39.372Z,26.80
2023-03-22T00:36:39.305Z,26.70
2023-03-22T00:37:39.311Z,28.30
2023-03-22T00:38:45.549Z,26.30
2023-03-22T00:39:41.310Z,26.10
2023-03-22T00:40:40.441Z,26.60
2023-03-22T00:41:39.262Z,27.50
2023-03-22T00:42:39.249Z,26.90
2023-03-22T00:43:39.245Z,27.00
2023-03-22T00:44:39.266Z,27.10
2023-03-22T00:45:39.219Z,27.90
2023-03-22T00:46:39.222Z,27.70
2023-03-22T00:47:39.202Z,27.30
2023-03-22T00:48:39.183Z,27.70
2023-03-22T00:49:39.202Z,28.00
2023-03-22T00:50:39.395Z,27.50
2023-03-22T00:51:39.147Z,28.00
2023-03-22T00:52:39.145Z,28.80
2023-03-22T00:53:42.424Z,28.90
2023-03-22T00:54:39.129Z,29.60
2023-03-22T00:55:39.138Z,28.90
2023-03-22T00:56:39.120Z,28.70
2023-03-22T00:57:39.128Z,29.70
2023-03-22T00:58:39.101Z,30.20
2023-03-22T00:59:39.082Z,30.10
2023-03-22T01:00:39.441Z,30.20
2023-03-22T01:01:39.063Z,29.90
2023-03-22T01:02:39.051Z,30.20
2023-03-22T01:03:39.068Z,31.30
2023-03-22T01:04:39.053Z,31.40
2023-03-22T01:05:39.061Z,31.10
2023-03-22T01:06:39.007Z,30.70
2023-03-22T01:07:39.007Z,30.70
2023-03-22T01:08:39.412Z,30.90
2023-03-22T01:09:38.985Z,31.30
2023-03-22T01:10:39.201Z,31.30
2023-03-22T01:11:38.948Z,31.20
2023-03-22T01:12:38.944Z,30.40
2023-03-22T01:13:38.940Z,31.30
2023-03-22T01:14:38.929Z,31.70
2023-03-22T01:15:38.960Z,30.70
2023-03-22T01:16:38.961Z,31.40
2023-03-22T01:17:38.901Z,30.90
2023-03-22T01:18:38.892Z,30.70
2023-03-22T01:19:38.882Z,30.50
2023-03-22T01:20:39.293Z,31.00
2023-03-22T01:21:38.871Z,31.10
2023-03-22T01:22:38.853Z,31.10
2023-03-22T01:23:38.849Z,30.40
2023-03-22T01:24:38.843Z,31.00
2023-03-22T01:25:38.844Z,31.00
2023-03-22T01:26:38.809Z,31.20
2023-03-22T01:27:38.806Z,30.30
2023-03-22T01:28:38.785Z,30.60
2023-03-22T01:29:38.786Z,30.40
2023-03-22T01:30:39.078Z,30.40
2023-03-22T01:31:38.768Z,31.10
2023-03-22T01:32:38.763Z,31.20
2023-03-22T01:33:38.778Z,31.20
2023-03-22T01:34:38.729Z,31.00
2023-03-22T01:35:38.769Z,30.60
2023-03-22T01:36:38.712Z,31.50
2023-03-22T01:37:38.706Z,30.60
2023-03-22T01:38:38.715Z,31.60
2023-03-22T01:39:38.724Z,31.90
2023-03-22T01:40:39.023Z,31.10
2023-03-22T01:41:38.672Z,31.00
2023-03-22T01:42:38.674Z,31.50
2023-03-22T01:43:38.658Z,29.90
2023-03-22T01:44:38.639Z,32.10
2023-03-22T01:45:38.680Z,30.90
2023-03-22T01:46:38.716Z,31.30
2023-03-22T01:47:38.610Z,32.30
2023-03-22T01:48:38.721Z,32.40
2023-03-22T01:49:38.593Z,32.00
2023-03-22T01:50:38.882Z,32.20
2023-03-22T01:51:38.574Z,32.40
2023-03-22T01:52:38.557Z,32.80
2023-03-22T01:53:38.556Z,33.40
2023-03-22T01:54:38.550Z,33.50
2023-03-22T01:55:38.560Z,33.20
2023-03-22T01:56:38.525Z,32.90
2023-03-22T01:57:38.517Z,35.00
2023-03-22T01:58:38.503Z,32.90
2023-03-22T01:59:38.500Z,33.80
2023-03-22T02:00:38.825Z,34.10
2023-03-22T02:01:38.497Z,34.70
2023-03-22T02:02:39.530Z,34.00
2023-03-22T02:03:38.452Z,34.20
2023-03-22T02:04:38.493Z,34.80
2023-03-22T02:05:38.469Z,35.60
2023-03-22T02:06:38.466Z,35.10
2023-03-22T02:07:38.420Z,34.60
2023-03-22T02:08:38.406Z,35.10
2023-03-22T02:09:38.397Z,35.20
2023-03-22T02:10:38.575Z,36.50
2023-03-22T02:11:38.374Z,36.50
2023-03-22T02:12:38.365Z,36.20
2023-03-22T02:13:38.364Z,36.50
2023-03-22T02:14:38.353Z,37.00
2023-03-22T02:15:39.428Z,37.80
2023-03-22T02:16:38.392Z,37.20
2023-03-22T02:17:38.326Z,37.00
2023-03-22T02:18:38.312Z,38.30
2023-03-22T02:19:38.303Z,37.80
2023-03-22T02:20:38.699Z,38.10
2023-03-22T02:21:38.275Z,38.70
2023-03-22T02:22:38.277Z,38.80
2023-03-22T02:23:38.260Z,38.40
2023-03-22T02:24:38.278Z,38.20
2023-03-22T02:25:38.295Z,39.80
2023-03-22T02:26:38.234Z,39.70
2023-03-22T02:27:38.242Z,39.60
2023-03-22T02:28:38.234Z,39.40
2023-03-22T02:29:38.207Z,40.20
2023-03-22T02:30:38.554Z,40.30
2023-03-22T02:31:38.255Z,39.30
2023-03-22T02:32:38.190Z,40.50
2023-03-22T02:33:40.449Z,40.50
2023-03-22T02:34:38.148Z,41.80
2023-03-22T02:35:38.184Z,40.70
2023-03-22T02:36:38.131Z,41.40
2023-03-22T02:37:38.138Z,41.80
2023-03-22T02:38:38.113Z,42.20
2023-03-22T02:39:38.105Z,42.20
2023-03-22T02:40:38.512Z,40.40
2023-03-22T02:41:38.094Z,41.70
2023-03-22T02:42:38.084Z,42.20
2023-03-22T02:43:38.078Z,42.20
2023-03-22T02:44:38.050Z,41.70
2023-03-22T02:45:38.071Z,42.40
2023-03-22T02:46:38.088Z,43.00
2023-03-22T02:47:38.027Z,43.00
2023-03-22T02:48:38.009Z,42.70
2023-03-22T02:49:38.013Z,42.40
2023-03-22T02:50:38.435Z,42.40
2023-03-22T02:51:38.010Z,42.70
2023-03-22T02:52:37.972Z,41.90
2023-03-22T02:53:37.958Z,43.90
2023-03-22T02:54:37.948Z,42.60
2023-03-22T02:55:37.949Z,42.70
2023-03-22T02:56:37.953Z,43.50
2023-03-22T02:57:37.930Z,43.60
2023-03-22T02:58:37.915Z,44.70
2023-03-22T02:59:37.905Z,43.20
2023-03-22T03:00:38.408Z,44.20
2023-03-22T03:01:37.987Z,45.80
2023-03-22T03:02:37.872Z,45.20
2023-03-22T03:03:37.870Z,44.00
2023-03-22T03:04:37.860Z,44.70
2023-03-22T03:05:37.848Z,44.80
2023-03-22T03:06:37.853Z,45.40
2023-03-22T03:07:37.830Z,44.00
2023-03-22T03:08:37.813Z,45.00
2023-03-22T03:09:37.807Z,45.20
2023-03-22T03:10:38.191Z,44.70
2023-03-22T03:11:37.811Z,46.10
2023-03-22T03:12:37.781Z,46.00
2023-03-22T03:13:37.809Z,45.90
2023-03-22T03:14:37.759Z,45.50
2023-03-22T03:15:37.754Z,47.50
2023-03-22T03:16:37.822Z,46.70
2023-03-22T03:17:37.729Z,46.10
2023-03-22T03:18:37.721Z,45.60
2023-03-22T03:19:37.710Z,46.40
2023-03-22T03:20:38.304Z,45.90
2023-03-22T03:21:37.690Z,47.40
2023-03-22T03:22:37.680Z,47.00
2023-03-22T03:23:37.670Z,46.20
2023-03-22T03:24:37.670Z,46.60
2023-03-22T03:25:37.702Z,47.60
2023-03-22T03:26:37.649Z,46.50
2023-03-22T03:27:37.638Z,48.00
2023-03-22T03:28:37.656Z,47.30
2023-03-22T03:29:37.619Z,48.80
2023-03-22T03:30:37.949Z,48.20
2023-03-22T03:31:37.659Z,46.40
2023-03-22T03:32:37.584Z,49.10
2023-03-22T03:33:37.587Z,49.60
2023-03-22T03:34:37.562Z,48.60
2023-03-22T03:35:37.636Z,48.50
2023-03-22T03:36:37.541Z,47.70
2023-03-22T03:37:37.546Z,49.30
2023-03-22T03:38:37.517Z,47.90
2023-03-22T03:39:37.514Z,49.60
2023-03-22T03:40:37.988Z,48.40
2023-03-22T03:41:37.495Z,47.70
2023-03-22T03:42:37.497Z,48.40
2023-03-22T03:43:37.497Z,47.50
2023-03-22T03:44:37.493Z,47.60
2023-03-22T03:45:37.535Z,48.00
2023-03-22T03:46:37.437Z,49.00
2023-03-22T03:47:37.432Z,50.10
2023-03-22T03:48:37.422Z,50.20
2023-03-22T03:49:37.416Z,51.60
2023-03-22T03:50:37.691Z,49.40
2023-03-22T03:51:37.396Z,49.90
2023-03-22T03:52:37.378Z,49.90
2023-03-22T03:53:37.370Z,49.00
2023-03-22T03:54:37.368Z,48.80
2023-03-22T03:55:37.371Z,49.10
2023-03-22T03:56:37.350Z,48.70
2023-03-22T03:57:37.335Z,48.30
2023-03-22T03:58:37.343Z,49.00
2023-03-22T03:59:37.332Z,48.40
2023-03-22T04:00:37.464Z,49.30
2023-03-22T04:01:37.301Z,47.90
2023-03-22T04:02:37.376Z,48.10
2023-03-22T04:03:37.296Z,46.50
2023-03-22T04:05:09.172Z,47.50
2023-03-22T04:05:37.263Z,49.00
2023-03-22T04:06:37.245Z,47.00
2023-03-22T04:07:37.266Z,46.50
2023-03-22T04:08:37.228Z,46.00
2023-03-22T04:09:37.247Z,46.40
2023-03-22T04:10:37.455Z,46.50
2023-03-22T04:11:37.201Z,47.20
2023-03-22T04:12:37.212Z,46.10
2023-03-22T04:13:37.179Z,45.90
2023-03-22T04:14:37.169Z,46.00
2023-03-22T04:15:37.157Z,46.50
2023-03-22T04:16:37.206Z,45.40
2023-03-22T04:17:37.167Z,46.60
2023-03-22T04:18:37.139Z,47.00
2023-03-22T04:19:37.123Z,46.50
2023-03-22T04:20:37.453Z,47.20
2023-03-22T04:21:37.098Z,46.00
2023-03-22T04:22:37.085Z,47.10
2023-03-22T04:23:37.084Z,46.90
2023-03-22T04:24:37.075Z,47.30
2023-03-22T04:25:37.085Z,46.10
2023-03-22T04:26:37.090Z,47.60
2023-03-22T04:27:37.037Z,47.80
2023-03-22T04:28:37.035Z,47.70
2023-03-22T04:29:37.009Z,47.60
2023-03-22T04:30:37.147Z,48.00
2023-03-22T04:31:36.992Z,48.80
2023-03-22T04:32:36.983Z,48.90
2023-03-22T04:33:36.974Z,49.30
2023-03-22T04:34:36.960Z,49.10
2023-03-22T04:35:36.988Z,50.10
2023-03-22T04:36:36.955Z,50.20
2023-03-22T04:37:36.947Z,49.20
2023-03-22T04:38:36.931Z,50.80
2023-03-22T04:39:36.907Z,50.10
2023-03-22T04:40:38.527Z,51.80
2023-03-22T04:41:36.921Z,51.40
2023-03-22T04:42:36.882Z,52.20
2023-03-22T04:43:36.882Z,51.90
2023-03-22T04:44:36.870Z,52.90
2023-03-22T04:45:36.841Z,51.80
2023-03-22T04:46:37.892Z,53.00
2023-03-22T04:47:36.827Z,53.20
2023-03-22T04:48:36.834Z,53.90
2023-03-22T04:49:36.816Z,54.40
2023-03-22T04:50:36.943Z,53.20
2023-03-22T04:51:36.835Z,54.10
2023-03-22T04:52:36.784Z,54.20
2023-03-22T04:53:36.772Z,54.20
2023-03-22T04:54:36.757Z,53.30
2023-03-22T04:55:36.755Z,55.40
2023-03-22T04:56:36.789Z,53.50
2023-03-22T04:57:37.715Z,55.10
2023-03-22T04:58:36.745Z,54.20
2023-03-22T04:59:36.726Z,53.60
2023-03-22T05:00:36.721Z,55.00
2023-03-22T05:01:36.719Z,56.70
2023-03-22T05:02:36.745Z,56.40
2023-03-22T05:03:36.703Z,56.50
2023-03-22T05:04:36.658Z,55.30
2023-03-22T05:05:36.651Z,56.30
2023-03-22T05:06:36.648Z,56.50
2023-03-22T05:07:36.631Z,57.30
2023-03-22T05:08:36.676Z,56.20
2023-03-22T05:09:36.612Z,56.60
2023-03-22T05:10:36.594Z,56.10
2023-03-22T05:11:36.636Z,58.60
2023-03-22T05:12:36.602Z,59.10
2023-03-22T05:13:36.580Z,58.20
2023-03-22T05:14:36.649Z,58.70
2023-03-22T05:15:36.550Z,59.70
2023-03-22T05:16:37.557Z,59.50
2023-03-22T05:17:36.538Z,59.40
2023-03-22T05:18:36.519Z,60.60
2023-03-22T05:19:36.518Z,60.00
2023-03-22T05:20:36.514Z,61.10
2023-03-22T05:21:36.625Z,60.00
2023-03-22T05:22:36.480Z,58.80
2023-03-22T05:23:36.496Z,61.90
2023-03-22T05:24:36.455Z,61.60
2023-03-22T05:25:36.458Z,62.30
2023-03-22T05:26:36.482Z,61.60
2023-03-22T05:27:36.429Z,61.60
2023-03-22T05:28:36.416Z,63.00
2023-03-22T05:29:36.408Z,62.10
2023-03-22T05:30:36.431Z,61.90
2023-03-22T05:31:36.436Z,62.40
2023-03-22T05:32:36.382Z,61.80
2023-03-22T05:33:36.366Z,62.50
2023-03-22T05:34:36.350Z,63.20
2023-03-22T05:35:36.406Z,63.40
2023-03-22T05:36:36.403Z,62.70
2023-03-22T05:37:36.330Z,62.40
2023-03-22T05:38:36.333Z,64.70
2023-03-22T05:39:36.311Z,63.10
2023-03-22T05:40:36.307Z,63.80
2023-03-22T05:41:36.969Z,65.40
2023-03-22T05:42:37.279Z,62.20
2023-03-22T05:43:36.276Z,62.60
2023-03-22T05:44:36.261Z,62.80
2023-03-22T05:45:36.246Z,63.90
2023-03-22T05:46:36.293Z,63.70
2023-03-22T05:47:36.225Z,63.90
2023-03-22T05:48:36.215Z,65.50
2023-03-22T05:49:36.210Z,63.80
2023-03-22T05:50:36.219Z,64.90
2023-03-22T05:51:36.231Z,64.00
2023-03-22T05:52:36.181Z,65.00
2023-03-22T05:53:36.162Z,64.40
2023-03-22T05:54:36.151Z,64.90
2023-03-22T05:55:36.149Z,64.30
2023-03-22T05:56:36.200Z,66.60
2023-03-22T05:57:36.130Z,66.10
2023-03-22T05:58:36.110Z,69.00
2023-03-22T05:59:36.107Z,67.00
2023-03-22T06:00:36.092Z,68.30
2023-03-22T06:01:36.119Z,67.00
2023-03-22T06:02:36.079Z,67.60
2023-03-22T06:03:36.148Z,67.10
2023-03-22T06:04:36.052Z,64.90
2023-03-22T06:05:36.051Z,64.90
2023-03-22T06:06:36.093Z,66.00
2023-03-22T06:07:36.018Z,64.10
2023-03-22T06:08:36.018Z,61.60
2023-03-22T06:09:35.999Z,60.40
2023-03-22T06:10:36.014Z,58.40
2023-03-22T06:11:35.996Z,56.90
2023-03-22T06:12:36.945Z,56.60
2023-03-22T06:13:35.960Z,55.60
2023-03-22T06:14:35.965Z,54.80
2023-03-22T06:15:35.941Z,53.30
2023-03-22T06:16:36.038Z,51.90
2023-03-22T06:17:35.915Z,52.70
2023-03-22T06:18:35.917Z,50.80
2023-03-22T06:19:35.902Z,51.40
2023-03-22T06:20:35.948Z,50.60
2023-03-22T06:21:35.952Z,51.10
2023-03-22T06:22:35.901Z,50.60
2023-03-22T06:23:35.867Z,48.40
2023-03-22T06:24:35.873Z,48.80
2023-03-22T06:25:35.892Z,50.00
2023-03-22T06:26:35.907Z,47.80
2023-03-22T06:27:35.830Z,47.60
2023-03-22T06:28:35.851Z,48.40
2023-03-22T06:29:35.807Z,46.00
2023-03-22T06:30:35.817Z,45.90
2023-03-22T06:31:35.852Z,45.90
2023-03-22T06:32:35.789Z,45.50
2023-03-22T06:33:35.749Z,45.70
2023-03-22T06:34:35.782Z,44.60
2023-03-22T06:35:35.794Z,44.50
2023-03-22T06:36:35.754Z,43.40
2023-03-22T06:37:35.707Z,42.40
2023-03-22T06:38:35.714Z,43.80
2023-03-22T06:39:35.692Z,42.60
2023-03-22T06:40:35.713Z,42.20
2023-03-22T06:41:36.744Z,40.90
2023-03-22T06:42:35.675Z,39.00
2023-03-22T06:43:35.650Z,39.30
2023-03-22T06:44:35.647Z,39.70
2023-03-22T06:45:35.647Z,39.50
2023-03-22T06:46:35.676Z,39.00
2023-03-22T06:47:35.620Z,38.60
2023-03-22T06:48:35.603Z,36.80
2023-03-22T06:49:35.625Z,36.70
2023-03-22T06:50:35.581Z,36.30
2023-03-22T06:51:35.634Z,35.60
2023-03-22T06:52:35.569Z,35.60
2023-03-22T06:53:35.550Z,35.60
2023-03-22T06:54:35.549Z,32.90
2023-03-22T06:55:35.548Z,33.10
2023-03-22T06:56:35.618Z,33.00
2023-03-22T06:57:35.520Z,31.60
2023-03-22T06:58:35.507Z,31.80
2023-03-22T06:59:35.496Z,32.10
2023-03-22T07:00:35.489Z,30.90
2023-03-22T07:01:35.495Z,31.80
2023-03-22T07:02:35.501Z,30.90
2023-03-22T07:03:35.464Z,29.50
2023-03-22T07:04:35.461Z,30.60
2023-03-22T07:05:35.619Z,28.70
2023-03-22T07:06:35.437Z,28.50
2023-03-22T07:07:35.463Z,29.00
2023-03-22T07:08:35.449Z,28.60
2023-03-22T07:09:35.416Z,28.20
2023-03-22T07:10:35.412Z,27.50
2023-03-22T07:11:35.406Z,27.80
2023-03-22T07:12:35.415Z,25.60
2023-03-22T07:13:35.386Z,26.60
2023-03-22T07:14:35.364Z,25.80
2023-03-22T07:15:35.408Z,25.50
2023-03-22T07:16:35.335Z,24.80
2023-03-22T07:17:35.356Z,24.60
2023-03-22T07:18:35.310Z,24.40
2023-03-22T07:19:35.311Z,24.50
2023-03-22T07:20:35.303Z,24.30
2023-03-22T07:21:35.295Z,23.30
2023-03-22T07:22:35.300Z,23.20
2023-03-22T07:23:35.280Z,23.00
2023-03-22T07:24:37.192Z,22.10
2023-03-22T07:25:36.246Z,21.80
2023-03-22T07:26:35.239Z,21.00
2023-03-22T07:27:35.255Z,21.70
2023-03-22T07:28:35.234Z,21.70
2023-03-22T07:29:35.206Z,20.60
2023-03-22T07:30:35.225Z,20.40
2023-03-22T07:31:35.183Z,19.90
2023-03-22T07:32:35.248Z,19.80
2023-03-22T07:33:35.214Z,19.80
2023-03-22T07:34:35.157Z,19.00
2023-03-22T07:35:35.242Z,17.90
2023-03-22T07:36:35.144Z,17.50
2023-03-22T07:37:35.144Z,17.70
2023-03-22T07:38:35.129Z,16.90
2023-03-22T07:39:35.121Z,16.10
2023-03-22T07:40:35.125Z,15.90
2023-03-22T07:41:35.091Z,15.90
2023-03-22T07:42:35.138Z,14.70
2023-03-22T07:43:47.304Z,15.60
2023-03-22T07:44:37.065Z,13.90
2023-03-22T07:45:35.078Z,14.10
2023-03-22T07:46:35.076Z,13.60
2023-03-22T07:47:41.042Z,13.30
2023-03-22T07:48:37.036Z,13.50
2023-03-22T07:49:35.015Z,14.10
2023-03-22T07:50:35.055Z,13.30
2023-03-22T07:51:34.998Z,13.00
2023-03-22T07:52:35.045Z,13.00
2023-03-22T07:53:34.988Z,12.50
2023-03-22T07:54:34.985Z,12.90
2023-03-22T07:55:34.972Z,12.80
2023-03-22T07:56:34.957Z,13.30
2023-03-22T07:57:34.952Z,13.50
2023-03-22T07:58:34.932Z,13.20
2023-03-22T07:59:34.919Z,12.50
2023-03-22T08:00:34.915Z,12.60
2023-03-22T08:01:34.995Z,12.10
2023-03-22T08:02:34.927Z,12.60
2023-03-22T08:03:34.900Z,12.70
2023-03-22T08:04:34.886Z,12.50
2023-03-22T08:05:34.864Z,12.00
2023-03-22T08:06:34.841Z,12.10
2023-03-22T08:07:35.879Z,11.70
2023-03-22T08:08:34.844Z,12.50
2023-03-22T08:09:34.820Z,12.30
2023-03-22T08:10:34.944Z,11.70
2023-03-22T08:11:34.809Z,12.50
2023-03-22T08:12:34.825Z,11.70
2023-03-22T08:13:34.782Z,12.30
2023-03-22T08:14:36.825Z,11.50
2023-03-22T08:15:35.784Z,12.00
2023-03-22T08:16:34.790Z,12.00
2023-03-22T08:17:34.762Z,12.00
2023-03-22T08:18:34.738Z,11.90
2023-03-22T08:19:34.722Z,12.10
2023-03-22T08:20:34.717Z,12.00
2023-03-22T08:21:34.710Z,11.80
2023-03-22T08:22:34.728Z,12.30
2023-03-22T08:23:41.796Z,11.30
2023-03-22T08:24:36.681Z,11.80
2023-03-22T08:25:34.669Z,11.60
2023-03-22T08:26:34.658Z,11.20
2023-03-22T08:27:34.691Z,11.20
2023-03-22T08:28:34.643Z,10.40
2023-03-22T08:29:34.641Z,11.10
2023-03-22T08:30:34.621Z,10.70
2023-03-22T08:31:34.633Z,10.70
2023-03-22T08:32:34.617Z,10.50
2023-03-22T08:33:34.596Z,10.90
2023-03-22T08:34:34.622Z,10.60
2023-03-22T08:35:34.574Z,10.70
2023-03-22T08:36:34.553Z,10.80
2023-03-22T08:37:34.566Z,10.60
2023-03-22T08:38:34.539Z,10.00
2023-03-22T08:39:34.540Z,10.30
2023-03-22T08:40:34.594Z,10.00
2023-03-22T08:41:34.513Z,10.00
2023-03-22T08:42:34.535Z,10.10
2023-03-22T08:43:34.488Z,9.90
2023-03-22T08:44:34.481Z,10.10
2023-03-22T08:45:34.470Z,10.50
2023-03-22T08:46:34.537Z,9.50
2023-03-22T08:47:34.470Z,9.40
2023-03-22T08:48:34.437Z,9.70
2023-03-22T08:49:34.454Z,10.20
2023-03-22T08:50:34.455Z,10.10
2023-03-22T08:51:34.424Z,9.50
2023-03-22T08:52:34.434Z,9.40
2023-03-22T08:53:34.419Z,9.00
2023-03-22T08:54:35.017Z,9.70
2023-03-22T08:55:34.368Z,9.50
2023-03-22T08:56:34.367Z,9.20
2023-03-22T08:57:34.692Z,9.20
2023-03-22T08:58:35.340Z,9.20
2023-03-22T08:59:34.357Z,9.30
2023-03-22T09:00:47.780Z,9.20
2023-03-22T09:01:36.431Z,8.40
2023-03-22T09:02:34.349Z,8.90
2023-03-22T09:03:34.291Z,8.90
2023-03-22T09:04:34.311Z,8.80
2023-03-22T09:05:34.277Z,8.70
2023-03-22T09:06:34.265Z,9.10
2023-03-22T09:07:34.273Z,8.70
2023-03-22T09:08:34.234Z,8.80
2023-03-22T09:09:35.236Z,8.50
2023-03-22T09:10:34.229Z,8.10
2023-03-22T09:11:34.214Z,8.40
2023-03-22T09:12:34.229Z,7.70
2023-03-22T09:13:34.198Z,8.00
2023-03-22T09:14:34.191Z,7.50
2023-03-22T09:15:34.201Z,7.50
2023-03-22T09:16:34.935Z,7.50
2023-03-22T09:17:34.152Z,7.70
2023-03-22T09:18:34.174Z,8.00
2023-03-22T09:19:35.294Z,7.60
2023-03-22T09:20:34.156Z,7.50
2023-03-22T09:21:34.145Z,7.70
2023-03-22T09:22:34.111Z,7.10
2023-03-22T09:23:34.110Z,7.90
2023-03-22T09:24:34.078Z,7.70
2023-03-22T09:25:34.084Z,7.60
2023-03-22T09:26:34.072Z,7.50
2023-03-22T09:27:34.059Z,7.50
2023-03-22T09:28:34.074Z,7.60
2023-03-22T09:29:34.033Z,7.70
2023-03-22T09:30:34.056Z,7.90
2023-03-22T09:31:34.100Z,7.20
2023-03-22T09:32:34.749Z,7.40
2023-03-22T09:33:33.992Z,7.60
2023-03-22T09:34:33.986Z,7.50
2023-03-22T09:35:33.998Z,6.90
2023-03-22T09:36:33.960Z,7.60
2023-03-22T09:37:33.970Z,7.40
2023-03-22T09:38:34.014Z,7.60
2023-03-22T09:39:33.922Z,7.40
2023-03-22T09:40:33.933Z,7.30
2023-03-22T09:41:33.916Z,7.20
2023-03-22T09:42:33.945Z,6.90
2023-03-22T09:43:33.891Z,7.30
2023-03-22T09:44:33.883Z,7.70
2023-03-22T09:45:33.874Z,7.70
2023-03-22T09:46:33.929Z,7.10
2023-03-22T09:47:44.476Z,6.80
2023-03-22T09:48:35.855Z,7.60
2023-03-22T09:49:46.943Z,7.10
2023-03-22T09:50:35.828Z,7.00
2023-03-22T09:51:33.815Z,7.20
2023-03-22T09:52:33.860Z,7.20
2023-03-22T09:53:33.802Z,7.30
2023-03-22T09:54:33.797Z,7.10
2023-03-22T09:55:33.788Z,7.10
2023-03-22T09:56:33.762Z,6.80
2023-03-22T09:57:33.761Z,7.30
2023-03-22T09:58:33.769Z,6.40
2023-03-22T09:59:33.745Z,6.00
2023-03-22T10:00:33.867Z,6.70
2023-03-22T10:01:34.051Z,6.60
2023-03-22T10:02:33.759Z,6.70
2023-03-22T10:03:33.775Z,6.30
2023-03-22T10:04:33.737Z,6.90
2023-03-22T10:05:33.709Z,7.10
2023-03-22T10:06:33.671Z,6.40
2023-03-22T10:07:46.703Z,6.10
2023-03-22T10:08:33.648Z,6.20
2023-03-22T10:09:33.634Z,6.30
2023-03-22T10:10:33.644Z,6.70
2023-03-22T10:11:33.636Z,6.00
2023-03-22T10:12:33.615Z,6.20
2023-03-22T10:13:33.648Z,5.90
2023-03-22T10:14:33.585Z,5.90
2023-03-22T10:15:33.574Z,5.70
2023-03-22T10:16:33.600Z,6.00
2023-03-22T10:17:33.559Z,5.90
2023-03-22T10:18:33.569Z,5.90
2023-03-22T10:19:33.534Z,5.70
2023-03-22T10:20:34.560Z,5.80
2023-03-22T10:21:33.528Z,4.80
2023-03-22T10:22:33.519Z,4.90
2023-03-22T10:23:33.556Z,5.10
2023-03-22T10:24:33.496Z,5.50
2023-03-22T10:25:33.483Z,4.50
2023-03-22T10:26:33.492Z,5.00
2023-03-22T10:27:33.457Z,4.80
2023-03-22T10:28:33.465Z,4.40
2023-03-22T10:29:33.447Z,4.80
2023-03-22T10:30:33.440Z,4.60
2023-03-22T10:31:33.488Z,4.60
2023-03-22T10:32:33.424Z,4.50
2023-03-22T10:33:33.477Z,4.70
2023-03-22T10:34:33.391Z,4.10
2023-03-22T10:35:33.425Z,4.20
2023-03-22T10:36:33.372Z,4.40
2023-03-22T10:37:33.375Z,3.90
2023-03-22T10:38:33.441Z,4.40
2023-03-22T10:39:33.346Z,4.00
2023-03-22T10:40:33.336Z,4.40
2023-03-22T10:41:33.347Z,4.10
2023-03-22T10:42:33.317Z,4.20
2023-03-22T10:43:33.299Z,4.10
2023-03-22T10:44:33.323Z,3.70
2023-03-22T10:45:33.280Z,4.10
2023-03-22T10:46:33.298Z,4.20
2023-03-22T10:47:33.261Z,4.20
2023-03-22T10:48:33.495Z,4.00
2023-03-22T10:49:33.307Z,4.10
2023-03-22T10:50:33.239Z,4.70
2023-03-22T10:51:33.256Z,3.80
2023-03-22T10:52:33.211Z,4.00
2023-03-22T10:53:33.217Z,3.90
2023-03-22T10:54:33.190Z,4.10
2023-03-22T10:55:33.223Z,4.10
2023-03-22T10:56:33.180Z,4.10
2023-03-22T10:57:33.176Z,3.90
2023-03-22T10:58:33.181Z,4.20
2023-03-22T10:59:33.144Z,3.90
2023-03-22T11:00:33.183Z,4.40
2023-03-22T11:01:33.279Z,3.90
2023-03-22T11:02:33.222Z,3.90
2023-03-22T11:03:33.101Z,3.80
2023-03-22T11:04:33.097Z,3.60
2023-03-22T11:05:33.091Z,4.00
2023-03-22T11:06:33.085Z,3.70
2023-03-22T11:07:33.068Z,4.40
2023-03-22T11:08:33.078Z,3.90
2023-03-22T11:09:33.050Z,4.20
2023-03-22T11:10:33.163Z,3.70
2023-03-22T11:11:33.051Z,3.50
2023-03-22T11:12:33.027Z,4.10
2023-03-22T11:13:33.029Z,3.80
2023-03-22T11:14:33.005Z,3.70
2023-03-22T11:15:32.993Z,3.10
2023-03-22T11:16:33.030Z,3.30
2023-03-22T11:17:32.971Z,3.30
2023-03-22T11:18:32.983Z,3.30
2023-03-22T11:19:32.948Z,3.30
2023-03-22T11:20:33.015Z,3.60
2023-03-22T11:21:32.963Z,3.40
2023-03-22T11:22:32.915Z,3.30
2023-03-22T11:23:32.941Z,3.40
2023-03-22T11:24:32.937Z,3.40
2023-03-22T11:25:32.897Z,3.50
2023-03-22T11:26:33.267Z,3.30
2023-03-22T11:27:32.913Z,3.40
2023-03-22T11:28:32.878Z,3.40
2023-03-22T11:29:32.848Z,3.40
2023-03-22T11:30:32.839Z,2.90
2023-03-22T11:31:32.849Z,3.00
2023-03-22T11:32:32.886Z,3.20
2023-03-22T11:33:32.833Z,3.20
2023-03-22T11:34:32.845Z,3.30
2023-03-22T11:35:32.822Z,3.40
2023-03-22T11:36:32.790Z,3.40
2023-03-22T11:37:32.782Z,3.30
2023-03-22T11:38:32.782Z,3.90
2023-03-22T11:39:32.748Z,3.50
2023-03-22T11:40:32.765Z,3.70
2023-03-22T11:41:32.737Z,3.60
2023-03-22T11:42:32.736Z,3.70
2023-03-22T11:43:32.807Z,3.90
2023-03-22T11:44:32.712Z,3.50
2023-03-22T11:45:32.696Z,3.40
2023-03-22T11:46:33.708Z,3.70
2023-03-22T11:47:33.684Z,3.50
2023-03-22T11:48:32.851Z,3.70
2023-03-22T11:49:32.675Z,3.60
2023-03-22T11:50:32.771Z,3.50
2023-03-22T11:51:32.649Z,3.40
2023-03-22T11:52:32.661Z,4.10
2023-03-22T11:53:32.634Z,4.20
2023-03-22T11:54:32.611Z,4.30
2023-03-22T11:55:32.615Z,4.40
2023-03-22T11:56:32.596Z,4.30
2023-03-22T11:57:32.579Z,4.20
2023-03-22T11:58:32.585Z,4.90
2023-03-22T11:59:32.562Z,4.70
2023-03-22T12:00:32.552Z,4.80
2023-03-22T12:01:32.548Z,4.40
2023-03-22T12:02:32.648Z,4.50
2023-03-22T12:03:32.734Z,4.10
2023-03-22T12:04:32.579Z,4.00
2023-03-22T12:05:32.498Z,4.00
2023-03-22T12:06:32.543Z,4.30
2023-03-22T12:07:32.478Z,4.20
2023-03-22T12:08:32.511Z,4.10
2023-03-22T12:09:32.462Z,4.00
2023-03-22T12:10:32.449Z,4.10
2023-03-22T12:11:32.443Z,3.70
2023-03-22T12:12:32.430Z,3.90
2023-03-22T12:13:32.435Z,4.00
2023-03-22T12:14:32.417Z,3.90
2023-03-22T12:15:32.397Z,4.00
2023-03-22T12:16:32.435Z,3.70
2023-03-22T12:17:32.432Z,3.80
2023-03-22T12:18:32.423Z,3.80
2023-03-22T12:19:32.360Z,4.00
2023-03-22T12:20:32.366Z,3.90
2023-03-22T12:21:32.377Z,3.60
2023-03-22T12:22:32.343Z,3.50
2023-03-22T12:23:32.347Z,3.50
2023-03-22T12:24:32.305Z,3.40
2023-03-22T12:25:32.312Z,2.90
2023-03-22T12:26:32.287Z,2.50
2023-03-22T12:27:32.280Z,2.30
2023-03-22T12:28:32.292Z,2.20
2023-03-22T12:29:32.273Z,2.20
2023-03-22T12:30:32.261Z,1.80
2023-03-22T12:31:32.291Z,1.80
2023-03-22T12:32:32.275Z,2.00
2023-03-22T12:33:32.254Z,1.80
2023-03-22T12:34:32.220Z,1.70
2023-03-22T12:35:32.209Z,1.80
2023-03-22T12:36:32.201Z,1.80
2023-03-22T12:37:32.190Z,1.70
2023-03-22T12:38:32.219Z,1.90
2023-03-22T12:39:32.170Z,1.90
2023-03-22T12:40:32.174Z,1.90
2023-03-22T12:41:32.146Z,2.20
2023-03-22T12:42:34.702Z,2.30
2023-03-22T12:43:33.141Z,2.40
2023-03-22T12:44:32.127Z,2.80
2023-03-22T12:45:32.118Z,2.80
2023-03-22T12:46:32.124Z,2.60
2023-03-22T12:47:32.134Z,2.90
2023-03-22T12:48:32.161Z,2.60
2023-03-22T12:49:32.079Z,2.70
2023-03-22T12:50:32.067Z,2.40
2023-03-22T12:51:32.049Z,2.60
2023-03-22T12:52:37.763Z,2.70
2023-03-22T12:53:34.040Z,2.60
2023-03-22T12:54:32.021Z,2.40
2023-03-22T12:55:32.029Z,2.40
2023-03-22T12:56:31.996Z,2.40
2023-03-22T12:57:31.987Z,2.50
2023-03-22T12:58:32.003Z,2.50
2023-03-22T12:59:31.976Z,2.30
2023-03-22T13:00:32.042Z,2.10